createdAt,value
2022-08-05T00:00:13.038Z,101594.41
2022-08-05T00:02:43.821Z,101587.56
2022-08-05T00:05:27.081Z,101595.00
2022-08-05T00:08:04.628Z,101600.34
2022-08-05T00:10:31.191Z,101608.06
2022-08-05T00:12:57.619Z,101604.72
2022-08-05T00:15:55.832Z,101612.19
2022-08-05T00:18:22.655Z,101607.44
2022-08-05T00:20:50.377Z,101610.72
2022-08-05T00:23:17.217Z,101599.00
2022-08-05T00:25:57.628Z,101589.69
2022-08-05T00:28:29.585Z,101578.34
2022-08-05T00:30:56.271Z,101563.31
2022-08-05T00:34:56.345Z,101580.38
2022-08-05T00:37:09.007Z,101589.50
2022-08-05T00:39:02.359Z,101596.00
2022-08-05T00:41:46.859Z,101577.13
2022-08-05T00:44:18.860Z,101590.34
2022-08-05T00:46:47.388Z,101584.44
2022-08-05T00:49:20.803Z,101580.56
2022-08-05T00:51:52.029Z,101585.56
2022-08-05T00:54:18.816Z,101603.66
2022-08-05T00:56:51.507Z,101597.41
2022-08-05T00:59:18.295Z,101607.94
2022-08-05T01:01:48.550Z,101610.41
2022-08-05T01:04:15.806Z,101598.13
2022-08-05T01:06:43.725Z,101578.31
2022-08-05T01:09:17.358Z,101584.19
2022-08-05T01:11:48.879Z,101589.03
2022-08-05T01:14:27.933Z,101613.94
2022-08-05T01:17:16.642Z,101610.00
2022-08-05T01:20:01.746Z,101609.44
2022-08-05T01:22:51.463Z,101608.56
2022-08-05T01:25:24.770Z,101608.56
2022-08-05T01:28:37.789Z,101601.50
2022-08-05T01:31:21.274Z,101614.88
2022-08-05T01:34:03.232Z,101603.19
2022-08-05T01:36:32.960Z,101607.84
2022-08-05T01:39:00.988Z,101598.28
2022-08-05T01:41:31.234Z,101611.03
2022-08-05T01:43:59.268Z,101623.19
2022-08-05T01:46:42.077Z,101622.41
2022-08-05T01:49:23.840Z,101611.28
2022-08-05T01:51:54.192Z,101615.53
2022-08-05T01:54:20.591Z,101634.41
2022-08-05T01:58:13.647Z,101628.28
2022-08-05T01:59:40.777Z,101630.72
2022-08-05T02:02:14.107Z,101615.53
2022-08-05T02:04:43.051Z,101626.84
2022-08-05T02:07:12.907Z,101627.88
2022-08-05T02:09:49.019Z,101620.00
2022-08-05T02:12:52.412Z,101610.88
2022-08-05T02:15:24.310Z,101607.66
2022-08-05T02:18:28.318Z,101616.56
2022-08-05T02:20:52.834Z,101612.41
2022-08-05T02:23:23.901Z,101618.00
2022-08-05T02:25:52.360Z,101617.59
2022-08-05T02:28:28.864Z,101607.72
2022-08-05T02:31:06.119Z,101611.41
2022-08-05T02:33:41.944Z,101618.47
2022-08-05T02:36:13.747Z,101613.34
2022-08-05T02:38:52.858Z,101615.34
2022-08-05T02:41:21.437Z,101616.44
2022-08-05T02:44:06.539Z,101597.78
2022-08-05T02:46:43.932Z,101613.00
2022-08-05T02:49:26.360Z,101616.44
2022-08-05T02:52:04.088Z,101601.28
2022-08-05T02:54:35.007Z,101614.84
2022-08-05T02:57:10.410Z,101596.41
2022-08-05T02:59:54.133Z,101591.97
2022-08-05T03:02:23.302Z,101600.09
2022-08-05T03:04:55.208Z,101595.41
2022-08-05T03:07:48.519Z,101580.66
2022-08-05T03:10:09.522Z,101590.41
2022-08-05T03:12:39.897Z,101596.72
2022-08-05T03:15:10.240Z,101602.78
2022-08-05T03:17:41.574Z,101611.06
2022-08-05T03:20:10.269Z,101601.38
2022-08-05T03:22:36.925Z,101600.97
2022-08-05T03:25:32.880Z,101613.09
2022-08-05T03:27:59.011Z,101598.34
2022-08-05T03:30:33.443Z,101607.63
2022-08-05T03:33:01.996Z,101607.84
2022-08-05T03:35:29.030Z,101593.69
2022-08-05T03:38:02.660Z,101595.91
2022-08-05T03:40:32.150Z,101597.53
2022-08-05T03:43:15.659Z,101594.91
2022-08-05T03:45:57.084Z,101607.88
2022-08-05T03:48:23.911Z,101611.50
2022-08-05T03:51:04.873Z,101600.97
2022-08-05T03:55:53.958Z,101604.44
2022-08-05T03:56:46.443Z,101605.84
2022-08-05T03:59:29.188Z,101607.44
2022-08-05T04:02:17.299Z,101603.81
2022-08-05T04:05:00.957Z,101621.03
2022-08-05T04:07:27.792Z,101567.97
2022-08-05T04:09:59.665Z,101618.16
2022-08-05T04:12:29.572Z,101622.00
2022-08-05T04:14:58.148Z,101630.31
2022-08-05T04:17:25.341Z,101628.69
2022-08-05T04:20:37.856Z,101635.56
2022-08-05T04:23:12.642Z,101606.44
2022-08-05T04:25:57.556Z,101617.97
2022-08-05T04:28:31.001Z,101628.28
2022-08-05T04:31:01.016Z,101629.09
2022-08-05T04:33:54.414Z,101628.09
2022-08-05T04:36:38.222Z,101635.75
2022-08-05T04:39:01.888Z,101631.13
2022-08-05T04:41:36.925Z,101609.88
2022-08-05T04:44:09.289Z,101613.72
2022-08-05T04:46:36.546Z,101625.84
2022-08-05T04:49:02.984Z,101614.72
2022-08-05T04:51:30.537Z,101610.69
2022-08-05T04:53:57.291Z,101609.25
2022-08-05T04:56:34.421Z,101637.41
2022-08-05T04:59:14.034Z,101616.53
2022-08-05T05:02:08.196Z,101632.75
2022-08-05T05:04:38.194Z,101622.59
2022-08-05T05:07:05.216Z,101635.97
2022-08-05T05:09:37.422Z,101639.00
2022-08-05T05:12:05.145Z,101643.06
2022-08-05T05:14:32.757Z,101641.03
2022-08-05T05:17:03.378Z,101619.38
2022-08-05T05:19:39.572Z,101637.41
2022-08-05T05:22:24.219Z,101624.44
2022-08-05T05:24:57.713Z,101632.13
2022-08-05T05:27:41.773Z,101630.50
2022-08-05T05:30:30.593Z,101623.00
2022-08-05T05:33:00.407Z,101624.66
2022-08-05T05:35:29.125Z,101616.13
2022-08-05T05:38:02.925Z,101642.25
2022-08-05T05:40:32.021Z,101639.59
2022-08-05T05:42:59.309Z,101647.31
2022-08-05T05:45:25.978Z,101637.41
2022-08-05T05:48:05.689Z,101647.34
2022-08-05T05:50:35.654Z,101632.31
2022-08-05T05:53:21.285Z,101630.09
2022-08-05T05:55:52.178Z,101642.28
2022-08-05T05:58:31.775Z,101648.94
2022-08-05T06:01:12.153Z,101640.00
2022-08-05T06:03:53.605Z,101648.94
2022-08-05T06:06:28.106Z,101625.03
2022-08-05T06:08:58.261Z,101640.03
2022-08-05T06:11:24.859Z,101627.88
2022-08-05T06:13:54.001Z,101638.81
2022-08-05T06:16:30.953Z,101644.47
2022-08-05T06:19:01.284Z,101652.34
2022-08-05T06:21:36.554Z,101650.16
2022-08-05T06:24:04.492Z,101642.84
2022-08-05T06:26:33.939Z,101659.22
2022-08-05T06:29:03.700Z,101660.44
2022-08-05T06:31:33.585Z,101647.28
2022-08-05T06:34:07.136Z,101673.97
2022-08-05T06:36:56.709Z,101660.22
2022-08-05T06:39:22.248Z,101672.31
2022-08-05T06:41:53.446Z,101670.69
2022-08-05T06:44:19.877Z,101674.50
2022-08-05T06:46:50.860Z,101680.63
2022-08-05T06:49:17.696Z,101667.44
2022-08-05T06:51:45.559Z,101687.50
2022-08-05T06:54:18.240Z,101694.38
2022-08-05T06:56:55.026Z,101687.88
2022-08-05T06:59:38.498Z,101692.09
2022-08-05T07:02:05.404Z,101701.00
2022-08-05T07:04:31.797Z,101692.34
2022-08-05T07:06:59.563Z,101690.88
2022-08-05T07:09:26.064Z,101697.44
2022-08-05T07:12:00.323Z,101698.44
2022-08-05T07:14:45.861Z,101699.22
2022-08-05T07:18:01.764Z,101695.75
2022-08-05T07:22:45.781Z,101710.09
2022-08-05T07:25:55.316Z,101707.78
2022-08-05T07:28:07.354Z,101705.25
2022-08-05T07:30:39.530Z,101728.28
2022-08-05T07:33:15.503Z,101711.94
2022-08-05T07:36:03.190Z,101730.28
2022-08-05T07:38:33.656Z,101721.44
2022-08-05T07:42:08.330Z,101728.88
2022-08-05T07:43:57.934Z,101737.97
2022-08-05T07:46:29.037Z,101734.16
2022-08-05T07:49:01.878Z,101739.63
2022-08-05T07:51:36.949Z,101747.22
2022-08-05T07:54:05.210Z,101743.72
2022-08-05T07:57:01.155Z,101731.47
2022-08-05T07:59:17.993Z,101755.28
2022-08-05T08:01:51.669Z,101760.50
2022-08-05T08:04:24.404Z,101755.47
2022-08-05T08:07:05.471Z,101768.53
2022-08-05T08:09:33.752Z,101765.75
2022-08-05T08:12:09.026Z,101757.66
2022-08-05T08:14:42.096Z,101781.97
2022-08-05T08:17:15.981Z,101759.56
2022-08-05T08:20:22.727Z,101783.06
2022-08-05T08:22:35.084Z,101767.13
2022-08-05T08:25:02.779Z,101788.22
2022-08-05T08:27:40.185Z,101783.53
2022-08-05T08:30:28.589Z,101784.03
2022-08-05T08:33:02.542Z,101787.84
2022-08-05T08:35:35.107Z,101786.31
2022-08-05T08:38:07.766Z,101792.38
2022-08-05T08:40:35.237Z,101799.88
2022-08-05T08:45:16.839Z,101793.84
2022-08-05T08:45:52.993Z,101800.88
2022-08-05T08:48:36.080Z,101799.50
2022-08-05T08:51:54.475Z,101791.13
2022-08-05T08:53:53.605Z,101800.88
2022-08-05T08:56:22.215Z,101808.50
2022-08-05T08:58:49.559Z,101807.34
2022-08-05T09:01:18.820Z,101809.31
2022-08-05T09:03:46.977Z,101809.06
2022-08-05T09:06:17.237Z,101798.56
2022-08-05T09:08:46.809Z,101820.88
2022-08-05T09:11:14.769Z,101824.06
2022-08-05T09:14:00.871Z,101817.03
2022-08-05T09:16:28.688Z,101822.53
2022-08-05T09:18:55.759Z,101827.63
2022-08-05T09:22:22.447Z,101819.69
2022-08-05T09:24:14.615Z,101823.63
2022-08-05T09:26:43.554Z,101829.47
2022-08-05T09:29:10.273Z,101838.16
2022-08-05T09:32:42.167Z,101844.34
2022-08-05T09:34:23.262Z,101834.28
2022-08-05T09:36:55.186Z,101841.47
2022-08-05T09:39:24.588Z,101844.56
2022-08-05T09:42:08.415Z,101848.16
2022-08-05T09:44:51.229Z,101858.22
2022-08-05T09:47:22.882Z,101825.41
2022-08-05T09:50:00.638Z,101850.03
2022-08-05T09:52:29.944Z,101874.59
2022-08-05T09:55:57.086Z,101854.25
2022-08-05T09:57:59.700Z,101852.91
2022-08-05T10:00:26.666Z,101875.81
2022-08-05T10:02:54.898Z,101873.84
2022-08-05T10:05:26.978Z,101872.75
2022-08-05T10:08:35.880Z,101879.50
2022-08-05T10:10:45.501Z,101873.81
2022-08-05T10:13:31.813Z,101870.78
2022-08-05T10:16:37.804Z,101866.47
2022-08-05T10:19:10.135Z,101877.84
2022-08-05T10:21:40.136Z,101879.50
2022-08-05T10:24:10.680Z,101884.72
2022-08-05T10:26:37.907Z,101872.31
2022-08-05T10:29:23.904Z,101882.16
2022-08-05T10:32:52.563Z,101886.78
2022-08-05T10:34:53.808Z,101899.94
2022-08-05T10:37:21.006Z,101881.53
2022-08-05T10:39:58.978Z,101888.06
2022-08-05T10:42:33.781Z,101894.66
2022-08-05T10:45:01.753Z,101889.63
2022-08-05T10:47:33.221Z,101913.38
2022-08-05T10:50:32.695Z,101906.03
2022-08-05T10:53:01.003Z,101916.94
2022-08-05T10:55:30.243Z,101908.00
2022-08-05T10:58:09.760Z,101914.19
2022-08-05T11:00:42.287Z,101912.22
2022-08-05T11:03:25.313Z,101922.16
2022-08-05T11:06:15.449Z,101916.44
2022-08-05T11:09:13.217Z,101932.84
2022-08-05T11:11:53.243Z,101935.19
2022-08-05T11:18:07.390Z,101934.59
2022-08-05T11:20:37.321Z,101944.91
2022-08-05T11:23:33.615Z,101938.91
2022-08-05T11:26:17.166Z,101952.34
2022-08-05T11:28:56.073Z,101954.69
2022-08-05T11:31:56.713Z,101936.09
2022-08-05T11:34:17.206Z,101953.50
2022-08-05T11:36:52.595Z,101967.84
2022-08-05T11:39:49.036Z,101978.31
2022-08-05T11:42:18.343Z,101973.53
2022-08-05T11:44:53.928Z,101976.84
2022-08-05T11:47:48.327Z,101978.44
2022-08-05T11:50:09.389Z,101993.00
2022-08-05T11:52:35.837Z,102001.00
2022-08-05T11:55:07.647Z,101997.50
2022-08-05T11:58:08.334Z,102013.47
2022-08-05T12:00:31.040Z,102012.09
2022-08-05T12:02:57.652Z,102002.13
2022-08-05T12:05:32.327Z,102022.84
2022-08-05T12:08:10.087Z,102010.63
2022-08-05T12:10:45.458Z,102022.75
2022-08-05T12:13:16.471Z,102018.28
2022-08-05T12:15:44.963Z,102010.25
2022-08-05T12:18:12.346Z,102023.81
2022-08-05T12:20:39.261Z,102021.56
2022-08-05T12:23:12.507Z,102023.03
2022-08-05T12:25:56.700Z,102032.06
2022-08-05T12:28:50.098Z,102034.31
2022-08-05T12:31:23.330Z,102039.53
2022-08-05T12:34:01.475Z,102035.19
2022-08-05T12:36:30.394Z,102030.78
2022-08-05T12:38:58.582Z,102031.56
2022-08-05T12:41:34.188Z,102049.28
2022-08-05T12:44:03.615Z,102061.25
2022-08-05T12:46:31.626Z,102051.56
2022-08-05T12:48:59.687Z,102054.28
2022-08-05T12:52:14.006Z,102068.56
2022-08-05T12:54:36.696Z,102054.03
2022-08-05T12:57:09.209Z,102063.63
2022-08-05T13:01:56.959Z,102063.41
2022-08-05T13:02:41.848Z,102045.53
2022-08-05T13:05:12.618Z,102070.94
2022-08-05T13:08:00.030Z,102030.16
2022-08-05T13:10:28.688Z,102053.50
2022-08-05T13:12:58.028Z,102072.91
2022-08-05T13:15:41.782Z,102065.94
2022-08-05T13:18:18.861Z,102067.75
2022-08-05T13:20:47.115Z,102077.44
2022-08-05T13:23:13.597Z,102077.50
2022-08-05T13:25:52.837Z,102066.06
2022-08-05T13:28:26.857Z,102074.94
2022-08-05T13:30:53.690Z,102067.06
2022-08-05T13:34:24.912Z,102069.06
2022-08-05T13:36:09.309Z,102062.16
2022-08-05T13:38:38.496Z,102075.63
2022-08-05T13:41:10.706Z,102088.44
2022-08-05T13:43:43.989Z,102079.19
2022-08-05T13:46:12.589Z,102085.22
2022-08-05T13:48:57.112Z,102075.09
2022-08-05T13:51:40.397Z,102077.53
2022-08-05T13:54:13.108Z,102078.19
2022-08-05T13:56:45.317Z,102086.63
2022-08-05T13:59:20.277Z,102084.81
2022-08-05T14:01:59.175Z,102075.81
2022-08-05T14:04:50.594Z,102088.94
2022-08-05T14:07:59.815Z,102098.63
2022-08-05T14:10:19.270Z,102104.50
2022-08-05T14:12:54.940Z,102116.13
2022-08-05T14:16:06.038Z,102099.00
2022-08-05T14:18:14.833Z,102093.09
2022-08-05T14:20:47.203Z,102091.44
2022-08-05T14:23:18.920Z,102100.41
2022-08-05T14:25:53.806Z,102125.50
2022-08-05T14:28:26.216Z,102141.03
2022-08-05T14:30:53.674Z,102141.75
2022-08-05T14:33:22.726Z,102130.03
2022-08-05T14:35:50.419Z,102142.59
2022-08-05T14:38:31.592Z,102143.44
2022-08-05T14:41:01.492Z,102143.88
2022-08-05T14:43:59.058Z,102138.50
2022-08-05T14:46:18.819Z,102146.38
2022-08-05T14:48:49.878Z,102149.19
2022-08-05T14:51:17.564Z,102152.03
2022-08-05T14:53:44.935Z,102149.44
2022-08-05T14:56:14.452Z,102158.34
2022-08-05T14:58:53.296Z,102142.63
2022-08-05T15:01:24.289Z,102150.63
2022-08-05T15:04:09.950Z,102161.78
2022-08-05T15:06:38.530Z,102157.84
2022-08-05T15:09:06.936Z,102173.34
2022-08-05T15:11:51.323Z,102170.09
2022-08-05T15:14:35.097Z,102168.31
2022-08-05T15:17:09.850Z,102168.16
2022-08-05T15:19:55.326Z,102176.94
2022-08-05T15:22:21.926Z,102170.78
2022-08-05T15:24:53.975Z,102172.84
2022-08-05T15:27:20.391Z,102169.13
2022-08-05T15:29:46.981Z,102194.00
2022-08-05T15:32:16.416Z,102163.25
2022-08-05T15:34:43.135Z,102161.13
2022-08-05T15:37:14.703Z,102180.78
2022-08-05T15:41:00.647Z,102184.78
2022-08-05T15:42:55.179Z,102180.69
2022-08-05T15:45:15.225Z,102185.63
2022-08-05T15:47:42.787Z,102183.34
2022-08-05T15:50:13.947Z,102205.25
2022-08-05T15:52:54.575Z,102205.88
2022-08-05T15:55:24.810Z,102197.31
2022-08-05T15:58:08.834Z,102193.59
2022-08-05T16:00:57.084Z,102181.78
2022-08-05T16:03:21.834Z,102182.09
2022-08-05T16:05:52.415Z,102206.56
2022-08-05T16:08:19.337Z,102200.59
2022-08-05T16:10:45.804Z,102195.03
2022-08-05T16:13:12.571Z,102192.38
2022-08-05T16:15:51.687Z,102209.34
2022-08-05T16:18:18.699Z,102209.47
2022-08-05T16:20:46.236Z,102223.06
2022-08-05T16:23:12.644Z,102201.28
2022-08-05T16:25:39.292Z,102205.13
2022-08-05T16:28:10.311Z,102207.50
2022-08-05T16:30:37.004Z,102197.81
2022-08-05T16:33:04.235Z,102198.72
2022-08-05T16:35:32.042Z,102211.03
2022-08-05T16:38:15.276Z,102220.28
2022-08-05T16:40:51.668Z,102217.75
2022-08-05T16:43:23.730Z,102232.47
2022-08-05T16:46:07.878Z,102242.25
2022-08-05T16:48:38.514Z,102233.22
2022-08-05T16:51:10.215Z,102240.16
2022-08-05T16:54:05.864Z,102231.06
2022-08-05T16:56:29.318Z,102244.75
2022-08-05T16:58:56.198Z,102237.84
2022-08-05T17:01:24.328Z,102246.44
2022-08-05T17:03:51.725Z,102243.25
2022-08-05T17:06:18.211Z,102249.25
2022-08-05T17:08:52.942Z,102248.53
2022-08-05T17:11:23.838Z,102258.13
2022-08-05T17:13:51.812Z,102254.69
2022-08-05T17:16:32.504Z,102268.94
2022-08-05T17:19:02.299Z,102253.44
2022-08-05T17:21:35.746Z,102251.63
2022-08-05T17:24:19.666Z,102261.00
2022-08-05T17:26:50.753Z,102253.97
2022-08-05T17:29:17.164Z,102249.66
2022-08-05T17:31:58.198Z,102244.72
2022-08-05T17:34:30.166Z,102252.94
2022-08-05T17:36:59.653Z,102260.41
2022-08-05T17:39:33.611Z,102277.16
2022-08-05T17:42:19.658Z,102268.53
2022-08-05T17:44:50.237Z,102276.31
2022-08-05T17:47:21.798Z,102269.19
2022-08-05T17:50:00.270Z,102282.69
2022-08-05T17:52:49.728Z,102285.00
2022-08-05T17:55:22.148Z,102288.81
2022-08-05T17:57:50.338Z,102288.81
2022-08-05T18:00:17.511Z,102286.94
2022-08-05T18:02:47.104Z,102303.97
2022-08-05T18:05:16.818Z,102288.44
2022-08-05T18:07:44.478Z,102300.25
2022-08-05T18:10:20.292Z,102311.38
2022-08-05T18:12:47.307Z,102300.91
2022-08-05T18:15:14.088Z,102296.69
2022-08-05T18:18:00.524Z,102317.75
2022-08-05T18:20:29.161Z,102313.09
2022-08-05T18:22:58.699Z,102318.03
2022-08-05T18:25:32.709Z,102336.00
2022-08-05T18:27:59.861Z,102340.75
2022-08-05T18:30:32.250Z,102313.75
2022-08-05T18:33:00.482Z,102332.88
2022-08-05T18:36:01.213Z,102338.13
2022-08-05T18:38:19.304Z,102338.13
2022-08-05T18:41:55.881Z,102348.72
2022-08-05T18:43:42.987Z,102356.81
2022-08-05T18:46:15.024Z,102348.97
2022-08-05T18:48:42.168Z,102362.91
2022-08-05T18:52:06.257Z,102359.16
2022-08-05T18:54:14.292Z,102363.69
2022-08-05T18:56:40.735Z,102362.78
2022-08-05T18:59:44.173Z,102359.44
2022-08-05T19:01:57.180Z,102356.34
2022-08-05T19:04:25.062Z,102373.31
2022-08-05T19:06:51.595Z,102371.00
2022-08-05T19:09:20.127Z,102377.72
2022-08-05T19:12:00.800Z,102365.63
2022-08-05T19:14:44.536Z,102367.63
2022-08-05T19:17:16.113Z,102373.34
2022-08-05T19:19:47.069Z,102386.56
2022-08-05T19:22:17.308Z,102379.56
2022-08-05T19:24:55.811Z,102391.75
2022-08-05T19:27:24.355Z,102382.41
2022-08-05T19:29:57.163Z,102392.47
2022-08-05T19:32:26.383Z,102376.34
2022-08-05T19:34:55.782Z,102400.91
2022-08-05T19:37:29.901Z,102400.91
2022-08-05T19:40:12.722Z,102382.22
2022-08-05T19:43:05.004Z,102395.19
2022-08-05T19:45:30.629Z,102384.13
2022-08-05T19:48:03.336Z,102410.69
2022-08-05T19:50:35.005Z,102410.75
2022-08-05T19:53:09.404Z,102420.56
2022-08-05T19:56:14.579Z,102438.41
2022-08-05T19:58:28.493Z,102423.09
2022-08-05T20:00:56.482Z,102441.16
2022-08-05T20:03:25.341Z,102431.28
2022-08-05T20:05:56.378Z,102437.88
2022-08-05T20:08:24.410Z,102435.16
2022-08-05T20:10:57.792Z,102444.78
2022-08-05T20:13:54.672Z,102447.91
2022-08-05T20:16:10.693Z,102449.41
2022-08-05T20:18:37.246Z,102464.63
2022-08-05T20:21:05.261Z,102460.69
2022-08-05T20:23:39.620Z,102469.78
2022-08-05T20:26:17.297Z,102467.31
2022-08-05T20:28:45.559Z,102467.78
2022-08-05T20:31:12.116Z,102464.88
2022-08-05T20:33:38.549Z,102466.19
2022-08-05T20:36:16.406Z,102447.00
2022-08-05T20:38:53.377Z,102462.59
2022-08-05T20:41:26.843Z,102459.97
2022-08-05T20:44:18.477Z,102480.63
2022-08-05T20:46:55.650Z,102484.38
2022-08-05T20:49:24.529Z,102481.59
2022-08-05T20:51:53.901Z,102484.06
2022-08-05T20:54:20.632Z,102490.63
2022-08-05T20:56:50.268Z,102477.19
2022-08-05T20:59:26.188Z,102488.97
2022-08-05T21:01:53.603Z,102493.56
2022-08-05T21:04:22.528Z,102482.91
2022-08-05T21:06:55.984Z,102490.75
2022-08-05T21:09:22.756Z,102500.59
2022-08-05T21:12:10.491Z,102498.00
2022-08-05T21:14:41.078Z,102493.53
2022-08-05T21:17:10.372Z,102486.16
2022-08-05T21:19:47.006Z,102501.03
2022-08-05T21:22:18.292Z,102500.06
2022-08-05T21:24:45.733Z,102492.66
2022-08-05T21:27:15.488Z,102501.84
2022-08-05T21:29:43.020Z,102498.41
2022-08-05T21:32:17.170Z,102499.50
2022-08-05T21:35:06.704Z,102499.53
2022-08-05T21:37:33.113Z,102500.34
2022-08-05T21:40:04.072Z,102501.97
2022-08-05T21:42:44.537Z,102508.03
2022-08-05T21:45:11.871Z,102493.75
2022-08-05T21:47:56.649Z,102510.50
2022-08-05T21:50:27.752Z,102500.53
2022-08-05T21:53:04.472Z,102519.16
2022-08-05T21:56:01.594Z,102526.66
2022-08-05T21:58:19.572Z,102532.84
2022-08-05T22:00:51.508Z,102519.16
2022-08-05T22:03:18.346Z,102517.34
2022-08-05T22:06:06.168Z,102529.09
2022-08-05T22:08:34.708Z,102516.66
2022-08-05T22:11:01.128Z,102514.06
2022-08-05T22:14:32.285Z,102526.63
2022-08-05T22:16:39.572Z,102506.00
2022-08-05T22:19:00.429Z,102530.28
2022-08-05T22:21:27.157Z,102534.47
2022-08-05T22:24:39.400Z,102531.28
2022-08-05T22:27:18.083Z,102529.19
2022-08-05T22:29:44.484Z,102526.25
2022-08-05T22:32:12.411Z,102542.47
2022-08-05T22:34:43.997Z,102544.22
2022-08-05T22:37:12.220Z,102532.53
2022-08-05T22:39:38.708Z,102546.53
2022-08-05T22:42:12.335Z,102546.91
2022-08-05T22:44:48.624Z,102546.13
2022-08-05T22:47:29.500Z,102542.41
2022-08-05T22:50:23.249Z,102539.13
2022-08-05T22:52:44.578Z,102526.78
2022-08-05T22:55:19.092Z,102558.25
2022-08-05T22:57:49.392Z,102550.69
2022-08-05T23:00:18.333Z,102552.44
2022-08-05T23:02:47.965Z,102557.16
2022-08-05T23:05:15.302Z,102558.97
2022-08-05T23:07:44.848Z,102563.91
2022-08-05T23:10:12.429Z,102562.75
2022-08-05T23:12:38.902Z,102566.38
2022-08-05T23:15:09.083Z,102567.19
2022-08-05T23:17:37.453Z,102554.22
2022-08-05T23:20:10.457Z,102560.63
2022-08-05T23:22:47.468Z,102569.50
2022-08-05T23:25:17.041Z,102570.88
2022-08-05T23:28:01.518Z,102575.13
2022-08-05T23:30:29.099Z,102570.31
2022-08-05T23:32:57.638Z,102580.41
2022-08-05T23:35:25.157Z,102580.22
2022-08-05T23:37:55.081Z,102587.88
2022-08-05T23:40:27.230Z,102575.28
2022-08-05T23:42:53.922Z,102595.59
2022-08-05T23:45:20.412Z,102596.72
2022-08-05T23:47:53.859Z,102600.22
2022-08-05T23:50:26.503Z,102585.97
2022-08-05T23:52:55.239Z,102600.63
2022-08-05T23:55:22.252Z,102583.53
2022-08-05T23:57:52.836Z,102579.63
